sensor_id;sensor_type;location;lat;lon;timestamp;temperature;humidity
48912;DHT22;34722;52.108;5.044;2022-10-16T00:01:19;13.00;99.90
48912;DHT22;34722;52.108;5.044;2022-10-16T00:03:47;13.00;99.90
48912;DHT22;34722;52.108;5.044;2022-10-16T00:06:13;13.00;99.90
48912;DHT22;34722;52.108;5.044;2022-10-16T00:08:40;12.90;99.90
48912;DHT22;34722;52.108;5.044;2022-10-16T00:11:33;12.90;99.90
48912;DHT22;34722;52.108;5.044;2022-10-16T00:14:00;12.90;99.90
48912;DHT22;34722;52.108;5.044;2022-10-16T00:16:27;12.90;99.90
48912;DHT22;34722;52.108;5.044;2022-10-16T00:18:54;12.90;99.90
48912;DHT22;34722;52.108;5.044;2022-10-16T00:21:25;13.00;99.90
48912;DHT22;34722;52.108;5.044;2022-10-16T00:24:00;13.00;99.90
48912;DHT22;34722;52.108;5.044;2022-10-16T00:26:28;13.10;99.90
48912;DHT22;34722;52.108;5.044;2022-10-16T00:28:54;13.10;99.90
48912;DHT22;34722;52.108;5.044;2022-10-16T00:31:21;13.10;99.90
48912;DHT22;34722;52.108;5.044;2022-10-16T00:33:47;13.10;99.90
48912;DHT22;34722;52.108;5.044;2022-10-16T00:36:16;13.10;99.90
48912;DHT22;34722;52.108;5.044;2022-10-16T00:38:42;13.20;99.90
48912;DHT22;34722;52.108;5.044;2022-10-16T00:41:12;13.20;99.90
48912;DHT22;34722;52.108;5.044;2022-10-16T00:43:50;13.10;99.90
48912;DHT22;34722;52.108;5.044;2022-10-16T00:46:37;13.10;99.90
48912;DHT22;34722;52.108;5.044;2022-10-16T00:49:15;13.10;99.90
48912;DHT22;34722;52.108;5.044;2022-10-16T00:51:48;13.20;99.90
48912;DHT22;34722;52.108;5.044;2022-10-16T00:54:24;13.20;99.90
48912;DHT22;34722;52.108;5.044;2022-10-16T00:56:51;13.20;99.90
48912;DHT22;34722;52.108;5.044;2022-10-16T00:59:27;13.20;99.90
48912;DHT22;34722;52.108;5.044;2022-10-16T01:01:54;13.20;99.90
48912;DHT22;34722;52.108;5.044;2022-10-16T01:04:21;13.30;99.90
48912;DHT22;34722;52.108;5.044;2022-10-16T01:09:51;13.40;99.90
48912;DHT22;34722;52.108;5.044;2022-10-16T01:17:46;13.40;99.90
48912;DHT22;34722;52.108;5.044;2022-10-16T01:20:37;13.40;99.90
48912;DHT22;34722;52.108;5.044;2022-10-16T01:28:38;13.40;99.90
48912;DHT22;34722;52.108;5.044;2022-10-16T01:31:05;13.40;99.90
48912;DHT22;34722;52.108;5.044;2022-10-16T01:33:43;13.40;99.90
48912;DHT22;34722;52.108;5.044;2022-10-16T01:36:21;13.30;99.90
48912;DHT22;34722;52.108;5.044;2022-10-16T01:38:50;13.30;99.90
48912;DHT22;34722;52.108;5.044;2022-10-16T01:41:43;13.30;99.90
48912;DHT22;34722;52.108;5.044;2022-10-16T01:44:33;13.30;99.90
48912;DHT22;34722;52.108;5.044;2022-10-16T01:47:00;13.20;99.90
48912;DHT22;34722;52.108;5.044;2022-10-16T01:49:32;13.20;99.90
48912;DHT22;34722;52.108;5.044;2022-10-16T01:52:00;13.30;99.90
48912;DHT22;34722;52.108;5.044;2022-10-16T01:54:28;13.30;99.90
48912;DHT22;34722;52.108;5.044;2022-10-16T01:56:57;13.30;99.90
48912;DHT22;34722;52.108;5.044;2022-10-16T01:59:25;13.30;99.90
48912;DHT22;34722;52.108;5.044;2022-10-16T02:01:58;13.20;99.90
48912;DHT22;34722;52.108;5.044;2022-10-16T02:04:29;13.30;99.90
48912;DHT22;34722;52.108;5.044;2022-10-16T02:06:56;13.30;99.90
48912;DHT22;34722;52.108;5.044;2022-10-16T02:09:22;13.20;99.90
48912;DHT22;34722;52.108;5.044;2022-10-16T02:11:51;13.10;99.90
48912;DHT22;34722;52.108;5.044;2022-10-16T02:14:18;13.10;99.90
48912;DHT22;34722;52.108;5.044;2022-10-16T02:16:46;13.00;99.90
48912;DHT22;34722;52.108;5.044;2022-10-16T02:19:17;12.90;99.90
48912;DHT22;34722;52.108;5.044;2022-10-16T02:21:59;12.90;99.90
48912;DHT22;34722;52.108;5.044;2022-10-16T02:27:14;12.80;99.90
48912;DHT22;34722;52.108;5.044;2022-10-16T02:29:49;12.90;99.90
48912;DHT22;34722;52.108;5.044;2022-10-16T02:32:17;12.90;99.90
48912;DHT22;34722;52.108;5.044;2022-10-16T02:34:45;12.80;99.90
48912;DHT22;34722;52.108;5.044;2022-10-16T02:37:12;12.80;99.90
48912;DHT22;34722;52.108;5.044;2022-10-16T02:39:39;12.80;99.90
48912;DHT22;34722;52.108;5.044;2022-10-16T02:42:11;12.90;99.90
48912;DHT22;34722;52.108;5.044;2022-10-16T02:44:37;12.90;99.90
48912;DHT22;34722;52.108;5.044;2022-10-16T02:47:03;12.90;99.90
48912;DHT22;34722;52.108;5.044;2022-10-16T02:49:28;12.90;99.90
48912;DHT22;34722;52.108;5.044;2022-10-16T02:51:54;12.90;99.90
48912;DHT22;34722;52.108;5.044;2022-10-16T02:54:20;13.00;99.90
48912;DHT22;34722;52.108;5.044;2022-10-16T02:56:45;13.00;99.90
48912;DHT22;34722;52.108;5.044;2022-10-16T02:59:11;13.00;99.90
48912;DHT22;34722;52.108;5.044;2022-10-16T03:01:37;13.00;99.90
48912;DHT22;34722;52.108;5.044;2022-10-16T03:04:03;13.00;99.90
48912;DHT22;34722;52.108;5.044;2022-10-16T03:06:28;13.00;99.90
48912;DHT22;34722;52.108;5.044;2022-10-16T03:08:54;13.00;99.90
48912;DHT22;34722;52.108;5.044;2022-10-16T03:11:19;12.90;99.90
48912;DHT22;34722;52.108;5.044;2022-10-16T03:13:45;12.90;99.90
48912;DHT22;34722;52.108;5.044;2022-10-16T03:16:11;12.90;99.90
48912;DHT22;34722;52.108;5.044;2022-10-16T03:18:37;12.90;99.90
48912;DHT22;34722;52.108;5.044;2022-10-16T03:21:03;12.90;99.90
48912;DHT22;34722;52.108;5.044;2022-10-16T03:23:28;12.90;99.90
48912;DHT22;34722;52.108;5.044;2022-10-16T03:25:54;12.80;99.90
48912;DHT22;34722;52.108;5.044;2022-10-16T03:28:20;12.80;99.90
48912;DHT22;34722;52.108;5.044;2022-10-16T03:30:46;12.80;99.90
48912;DHT22;34722;52.108;5.044;2022-10-16T03:33:12;12.80;99.90
48912;DHT22;34722;52.108;5.044;2022-10-16T03:35:37;12.70;99.90
48912;DHT22;34722;52.108;5.044;2022-10-16T03:38:03;12.70;99.90
48912;DHT22;34722;52.108;5.044;2022-10-16T03:40:29;12.70;99.90
48912;DHT22;34722;52.108;5.044;2022-10-16T03:42:57;12.70;99.90
48912;DHT22;34722;52.108;5.044;2022-10-16T03:45:24;12.70;99.90
48912;DHT22;34722;52.108;5.044;2022-10-16T03:47:49;12.60;99.90
48912;DHT22;34722;52.108;5.044;2022-10-16T03:50:15;12.70;99.90
48912;DHT22;34722;52.108;5.044;2022-10-16T03:52:41;12.70;99.90
48912;DHT22;34722;52.108;5.044;2022-10-16T03:55:07;12.70;99.90
48912;DHT22;34722;52.108;5.044;2022-10-16T03:57:33;12.70;99.90
48912;DHT22;34722;52.108;5.044;2022-10-16T03:59:59;12.70;99.90
48912;DHT22;34722;52.108;5.044;2022-10-16T04:02:24;12.70;99.90
48912;DHT22;34722;52.108;5.044;2022-10-16T04:04:50;12.80;99.90
48912;DHT22;34722;52.108;5.044;2022-10-16T04:07:15;12.80;99.90
48912;DHT22;34722;52.108;5.044;2022-10-16T04:09:41;12.90;99.90
48912;DHT22;34722;52.108;5.044;2022-10-16T04:12:07;12.90;99.90
48912;DHT22;34722;52.108;5.044;2022-10-16T04:14:33;12.90;99.90
48912;DHT22;34722;52.108;5.044;2022-10-16T04:16:59;12.90;99.90
48912;DHT22;34722;52.108;5.044;2022-10-16T04:19:25;12.90;99.90
48912;DHT22;34722;52.108;5.044;2022-10-16T04:21:50;12.90;99.90
48912;DHT22;34722;52.108;5.044;2022-10-16T04:24:16;12.90;99.90
48912;DHT22;34722;52.108;5.044;2022-10-16T04:26:41;12.90;99.90
48912;DHT22;34722;52.108;5.044;2022-10-16T04:29:07;12.90;99.90
48912;DHT22;34722;52.108;5.044;2022-10-16T04:31:33;12.90;99.90
48912;DHT22;34722;52.108;5.044;2022-10-16T04:33:59;12.90;99.90
48912;DHT22;34722;52.108;5.044;2022-10-16T04:36:25;12.80;99.90
48912;DHT22;34722;52.108;5.044;2022-10-16T04:38:50;12.80;99.90
48912;DHT22;34722;52.108;5.044;2022-10-16T04:41:16;12.80;99.90
48912;DHT22;34722;52.108;5.044;2022-10-16T04:43:42;12.70;99.90
48912;DHT22;34722;52.108;5.044;2022-10-16T04:46:07;12.70;99.90
48912;DHT22;34722;52.108;5.044;2022-10-16T04:48:33;12.60;99.90
48912;DHT22;34722;52.108;5.044;2022-10-16T04:50:59;12.60;99.90
48912;DHT22;34722;52.108;5.044;2022-10-16T04:53:25;12.60;99.90
48912;DHT22;34722;52.108;5.044;2022-10-16T04:55:50;12.50;99.90
48912;DHT22;34722;52.108;5.044;2022-10-16T04:58:16;12.60;99.90
48912;DHT22;34722;52.108;5.044;2022-10-16T05:00:42;12.50;99.90
48912;DHT22;34722;52.108;5.044;2022-10-16T05:03:09;12.60;99.90
48912;DHT22;34722;52.108;5.044;2022-10-16T05:05:35;12.50;99.90
48912;DHT22;34722;52.108;5.044;2022-10-16T05:08:02;12.50;99.90
48912;DHT22;34722;52.108;5.044;2022-10-16T05:10:28;12.50;99.90
48912;DHT22;34722;52.108;5.044;2022-10-16T05:12:53;12.60;99.90
48912;DHT22;34722;52.108;5.044;2022-10-16T05:15:19;12.60;99.90
48912;DHT22;34722;52.108;5.044;2022-10-16T05:17:45;12.60;99.90
48912;DHT22;34722;52.108;5.044;2022-10-16T05:20:11;12.60;99.90
48912;DHT22;34722;52.108;5.044;2022-10-16T05:22:37;12.60;99.90
48912;DHT22;34722;52.108;5.044;2022-10-16T05:25:03;12.60;99.90
48912;DHT22;34722;52.108;5.044;2022-10-16T05:27:29;12.60;99.90
48912;DHT22;34722;52.108;5.044;2022-10-16T05:29:55;12.70;99.90
48912;DHT22;34722;52.108;5.044;2022-10-16T05:32:20;12.70;99.90
48912;DHT22;34722;52.108;5.044;2022-10-16T05:34:46;12.70;99.90
48912;DHT22;34722;52.108;5.044;2022-10-16T05:37:12;12.70;99.90
48912;DHT22;34722;52.108;5.044;2022-10-16T05:39:38;12.70;99.90
48912;DHT22;34722;52.108;5.044;2022-10-16T05:42:05;12.70;99.90
48912;DHT22;34722;52.108;5.044;2022-10-16T05:44:31;12.70;99.90
48912;DHT22;34722;52.108;5.044;2022-10-16T05:46:56;12.80;99.90
48912;DHT22;34722;52.108;5.044;2022-10-16T05:49:22;12.70;99.90
48912;DHT22;34722;52.108;5.044;2022-10-16T05:51:47;12.80;99.90
48912;DHT22;34722;52.108;5.044;2022-10-16T05:54:13;12.70;99.90
48912;DHT22;34722;52.108;5.044;2022-10-16T05:56:43;12.80;99.90
48912;DHT22;34722;52.108;5.044;2022-10-16T05:59:09;12.80;99.90
48912;DHT22;34722;52.108;5.044;2022-10-16T06:01:37;12.80;99.90
48912;DHT22;34722;52.108;5.044;2022-10-16T06:04:03;12.70;99.90
48912;DHT22;34722;52.108;5.044;2022-10-16T06:06:29;12.70;99.90
48912;DHT22;34722;52.108;5.044;2022-10-16T06:08:56;12.70;99.90
48912;DHT22;34722;52.108;5.044;2022-10-16T06:11:25;12.70;99.90
48912;DHT22;34722;52.108;5.044;2022-10-16T06:13:52;12.70;99.90
48912;DHT22;34722;52.108;5.044;2022-10-16T06:16:22;12.70;99.90
48912;DHT22;34722;52.108;5.044;2022-10-16T06:18:51;12.70;99.90
48912;DHT22;34722;52.108;5.044;2022-10-16T06:21:20;12.70;99.90
48912;DHT22;34722;52.108;5.044;2022-10-16T06:23:47;12.70;99.90
48912;DHT22;34722;52.108;5.044;2022-10-16T06:26:18;12.70;99.90
48912;DHT22;34722;52.108;5.044;2022-10-16T06:28:49;12.70;99.90
48912;DHT22;34722;52.108;5.044;2022-10-16T06:31:16;12.70;99.90
48912;DHT22;34722;52.108;5.044;2022-10-16T06:33:42;12.80;99.90
48912;DHT22;34722;52.108;5.044;2022-10-16T06:36:10;12.80;99.90
48912;DHT22;34722;52.108;5.044;2022-10-16T06:38:36;12.80;99.90
48912;DHT22;34722;52.108;5.044;2022-10-16T06:41:06;12.80;99.90
48912;DHT22;34722;52.108;5.044;2022-10-16T06:43:32;12.80;99.90
48912;DHT22;34722;52.108;5.044;2022-10-16T06:46:01;12.90;99.90
48912;DHT22;34722;52.108;5.044;2022-10-16T06:48:28;12.90;99.90
48912;DHT22;34722;52.108;5.044;2022-10-16T06:51:03;13.00;99.90
48912;DHT22;34722;52.108;5.044;2022-10-16T06:53:32;13.00;99.90
48912;DHT22;34722;52.108;5.044;2022-10-16T06:55:58;13.00;99.90
48912;DHT22;34722;52.108;5.044;2022-10-16T06:58:26;13.00;99.90
48912;DHT22;34722;52.108;5.044;2022-10-16T07:00:56;13.10;99.90
48912;DHT22;34722;52.108;5.044;2022-10-16T07:03:22;13.10;99.90
48912;DHT22;34722;52.108;5.044;2022-10-16T07:05:48;13.20;99.90
48912;DHT22;34722;52.108;5.044;2022-10-16T07:08:13;13.20;99.90
48912;DHT22;34722;52.108;5.044;2022-10-16T07:10:39;13.30;99.90
48912;DHT22;34722;52.108;5.044;2022-10-16T07:13:05;13.30;99.90
48912;DHT22;34722;52.108;5.044;2022-10-16T07:15:33;13.30;99.90
48912;DHT22;34722;52.108;5.044;2022-10-16T07:17:59;13.40;99.90
48912;DHT22;34722;52.108;5.044;2022-10-16T07:20:25;13.40;99.90
48912;DHT22;34722;52.108;5.044;2022-10-16T07:22:51;13.50;99.90
48912;DHT22;34722;52.108;5.044;2022-10-16T07:25:17;13.60;99.90
48912;DHT22;34722;52.108;5.044;2022-10-16T07:27:43;13.80;99.90
48912;DHT22;34722;52.108;5.044;2022-10-16T07:30:12;13.90;99.90
48912;DHT22;34722;52.108;5.044;2022-10-16T07:32:41;14.00;99.90
48912;DHT22;34722;52.108;5.044;2022-10-16T07:35:07;14.20;99.90
48912;DHT22;34722;52.108;5.044;2022-10-16T07:37:33;14.40;99.90
48912;DHT22;34722;52.108;5.044;2022-10-16T07:39:59;14.50;99.90
48912;DHT22;34722;52.108;5.044;2022-10-16T07:42:26;14.80;99.90
48912;DHT22;34722;52.108;5.044;2022-10-16T11:58:53;24.30;99.90
48912;DHT22;34722;52.108;5.044;2022-10-16T12:01:42;24.50;16.80
48912;DHT22;34722;52.108;5.044;2022-10-16T12:04:33;23.10;99.90
48912;DHT22;34722;52.108;5.044;2022-10-16T12:07:09;22.40;90.10
48912;DHT22;34722;52.108;5.044;2022-10-16T12:09:38;22.40;18.30
48912;DHT22;34722;52.108;5.044;2022-10-16T12:12:05;22.00;99.90
48912;DHT22;34722;52.108;5.044;2022-10-16T12:15:00;23.20;99.90
48912;DHT22;34722;52.108;5.044;2022-10-16T12:17:36;24.40;35.40
48912;DHT22;34722;52.108;5.044;2022-10-16T12:22:48;26.20;1.00
48912;DHT22;34722;52.108;5.044;2022-10-16T12:25:23;25.20;1.00
48912;DHT22;34722;52.108;5.044;2022-10-16T12:28:06;25.80;1.00
48912;DHT22;34722;52.108;5.044;2022-10-16T12:31:05;24.60;1.00
48912;DHT22;34722;52.108;5.044;2022-10-16T12:33:35;22.90;99.90
48912;DHT22;34722;52.108;5.044;2022-10-16T12:36:05;21.40;82.10
48912;DHT22;34722;52.108;5.044;2022-10-16T12:38:53;20.70;64.80
48912;DHT22;34722;52.108;5.044;2022-10-16T12:41:35;20.40;99.90
48912;DHT22;34722;52.108;5.044;2022-10-16T12:44:32;19.90;1.00
48912;DHT22;34722;52.108;5.044;2022-10-16T12:47:02;19.20;1.00
48912;DHT22;34722;52.108;5.044;2022-10-16T12:49:37;18.80;1.00
48912;DHT22;34722;52.108;5.044;2022-10-16T12:52:38;18.60;99.90
48912;DHT22;34722;52.108;5.044;2022-10-16T12:55:17;18.40;99.90
48912;DHT22;34722;52.108;5.044;2022-10-16T13:00:44;18.30;99.90
48912;DHT22;34722;52.108;5.044;2022-10-16T13:08:46;18.20;99.90
48912;DHT22;34722;52.108;5.044;2022-10-16T13:16:57;18.10;1.00
48912;DHT22;34722;52.108;5.044;2022-10-16T13:19:32;18.20;1.00
48912;DHT22;34722;52.108;5.044;2022-10-16T13:27:56;18.30;1.00
48912;DHT22;34722;52.108;5.044;2022-10-16T13:30:27;18.30;1.00
48912;DHT22;34722;52.108;5.044;2022-10-16T13:33:11;18.50;1.00
48912;DHT22;34722;52.108;5.044;2022-10-16T13:35:54;18.40;1.00
48912;DHT22;34722;52.108;5.044;2022-10-16T13:38:21;18.60;1.00
48912;DHT22;34722;52.108;5.044;2022-10-16T13:40:54;18.60;1.00
48912;DHT22;34722;52.108;5.044;2022-10-16T13:43:24;18.60;1.00
48912;DHT22;34722;52.108;5.044;2022-10-16T13:48:31;18.30;1.00
48912;DHT22;34722;52.108;5.044;2022-10-16T13:51:01;18.20;1.00
48912;DHT22;34722;52.108;5.044;2022-10-16T13:53:30;18.30;1.00
48912;DHT22;34722;52.108;5.044;2022-10-16T13:55:56;18.40;1.00
48912;DHT22;34722;52.108;5.044;2022-10-16T13:58:31;18.40;1.00
48912;DHT22;34722;52.108;5.044;2022-10-16T14:01:03;18.60;1.00
48912;DHT22;34722;52.108;5.044;2022-10-16T14:03:32;18.70;1.00
48912;DHT22;34722;52.108;5.044;2022-10-16T14:06:01;18.70;1.00
48912;DHT22;34722;52.108;5.044;2022-10-16T14:08:28;18.80;1.00
48912;DHT22;34722;52.108;5.044;2022-10-16T14:10:59;18.70;1.00
48912;DHT22;34722;52.108;5.044;2022-10-16T14:13:45;18.50;1.00
48912;DHT22;34722;52.108;5.044;2022-10-16T14:16:20;18.60;1.00
48912;DHT22;34722;52.108;5.044;2022-10-16T14:19:15;18.50;1.00
48912;DHT22;34722;52.108;5.044;2022-10-16T14:21:42;18.50;53.20
48912;DHT22;34722;52.108;5.044;2022-10-16T14:24:25;18.40;1.00
48912;DHT22;34722;52.108;5.044;2022-10-16T14:26:51;18.40;10.50
48912;DHT22;34722;52.108;5.044;2022-10-16T14:29:20;18.50;99.90
48912;DHT22;34722;52.108;5.044;2022-10-16T14:31:57;18.40;99.90
48912;DHT22;34722;52.108;5.044;2022-10-16T14:34:32;18.40;99.90
48912;DHT22;34722;52.108;5.044;2022-10-16T14:39:49;18.10;99.90
48912;DHT22;34722;52.108;5.044;2022-10-16T14:42:17;18.10;1.00
48912;DHT22;34722;52.108;5.044;2022-10-16T14:44:53;18.20;1.00
48912;DHT22;34722;52.108;5.044;2022-10-16T14:47:22;18.20;1.00
48912;DHT22;34722;52.108;5.044;2022-10-16T14:49:52;18.10;1.00
48912;DHT22;34722;52.108;5.044;2022-10-16T14:52:23;17.90;1.00
48912;DHT22;34722;52.108;5.044;2022-10-16T14:54:49;18.00;1.00
48912;DHT22;34722;52.108;5.044;2022-10-16T14:57:20;18.00;1.80
48912;DHT22;34722;52.108;5.044;2022-10-16T14:59:48;18.00;99.90
48912;DHT22;34722;52.108;5.044;2022-10-16T15:02:18;17.70;99.90
48912;DHT22;34722;52.108;5.044;2022-10-16T15:04:48;17.70;1.00
48912;DHT22;34722;52.108;5.044;2022-10-16T15:07:17;17.60;99.90
48912;DHT22;34722;52.108;5.044;2022-10-16T15:09:43;17.60;99.90
48912;DHT22;34722;52.108;5.044;2022-10-16T15:12:08;17.60;1.00
48912;DHT22;34722;52.108;5.044;2022-10-16T15:14:37;17.60;1.00
48912;DHT22;34722;52.108;5.044;2022-10-16T15:17:03;17.60;1.00
48912;DHT22;34722;52.108;5.044;2022-10-16T15:19:29;17.60;99.90
48912;DHT22;34722;52.108;5.044;2022-10-16T15:21:55;17.40;99.90
48912;DHT22;34722;52.108;5.044;2022-10-16T15:24:22;17.40;88.90
48912;DHT22;34722;52.108;5.044;2022-10-16T15:26:53;17.30;99.90
48912;DHT22;34722;52.108;5.044;2022-10-16T15:29:19;17.20;99.90
48912;DHT22;34722;52.108;5.044;2022-10-16T15:31:48;17.10;99.90
48912;DHT22;34722;52.108;5.044;2022-10-16T15:34:14;17.00;99.90
48912;DHT22;34722;52.108;5.044;2022-10-16T15:36:40;16.90;1.00
48912;DHT22;34722;52.108;5.044;2022-10-16T15:39:12;16.90;1.00
48912;DHT22;34722;52.108;5.044;2022-10-16T15:41:39;16.80;1.00
48912;DHT22;34722;52.108;5.044;2022-10-16T15:44:07;16.80;1.00
48912;DHT22;34722;52.108;5.044;2022-10-16T15:46:33;16.70;1.00
48912;DHT22;34722;52.108;5.044;2022-10-16T15:49:12;16.70;1.00
48912;DHT22;34722;52.108;5.044;2022-10-16T15:51:45;16.60;1.00
48912;DHT22;34722;52.108;5.044;2022-10-16T15:54:11;16.60;1.00
48912;DHT22;34722;52.108;5.044;2022-10-16T15:56:37;16.50;11.20
48912;DHT22;34722;52.108;5.044;2022-10-16T15:59:17;16.40;21.10
48912;DHT22;34722;52.108;5.044;2022-10-16T16:01:45;16.30;27.90
48912;DHT22;34722;52.108;5.044;2022-10-16T16:04:13;16.20;32.50
48912;DHT22;34722;52.108;5.044;2022-10-16T16:06:45;16.10;41.10
48912;DHT22;34722;52.108;5.044;2022-10-16T16:09:12;16.10;49.60
48912;DHT22;34722;52.108;5.044;2022-10-16T16:11:40;16.00;52.90
48912;DHT22;34722;52.108;5.044;2022-10-16T16:14:11;15.90;59.40
48912;DHT22;34722;52.108;5.044;2022-10-16T16:16:40;15.90;63.10
48912;DHT22;34722;52.108;5.044;2022-10-16T16:19:06;15.80;60.80
48912;DHT22;34722;52.108;5.044;2022-10-16T16:21:33;15.80;65.30
48912;DHT22;34722;52.108;5.044;2022-10-16T16:23:59;15.70;76.60
48912;DHT22;34722;52.108;5.044;2022-10-16T16:26:29;15.60;81.70
48912;DHT22;34722;52.108;5.044;2022-10-16T16:29:01;15.50;83.10
48912;DHT22;34722;52.108;5.044;2022-10-16T16:31:28;15.50;85.20
48912;DHT22;34722;52.108;5.044;2022-10-16T16:33:54;15.40;85.30
48912;DHT22;34722;52.108;5.044;2022-10-16T16:36:22;15.30;88.30
48912;DHT22;34722;52.108;5.044;2022-10-16T16:38:48;15.20;86.30
48912;DHT22;34722;52.108;5.044;2022-10-16T16:41:17;15.10;90.20
48912;DHT22;34722;52.108;5.044;2022-10-16T16:43:43;15.00;93.10
48912;DHT22;34722;52.108;5.044;2022-10-16T16:46:09;14.90;92.70
48912;DHT22;34722;52.108;5.044;2022-10-16T16:48:35;14.80;97.30
48912;DHT22;34722;52.108;5.044;2022-10-16T16:51:06;14.70;98.70
48912;DHT22;34722;52.108;5.044;2022-10-16T16:53:36;14.70;99.90
48912;DHT22;34722;52.108;5.044;2022-10-16T16:56:05;14.60;99.90
48912;DHT22;34722;52.108;5.044;2022-10-16T16:58:32;14.60;99.90
48912;DHT22;34722;52.108;5.044;2022-10-16T17:00:58;14.60;99.90
48912;DHT22;34722;52.108;5.044;2022-10-16T17:03:27;14.50;99.90
48912;DHT22;34722;52.108;5.044;2022-10-16T17:05:57;14.50;99.90
48912;DHT22;34722;52.108;5.044;2022-10-16T17:08:24;14.50;99.90
48912;DHT22;34722;52.108;5.044;2022-10-16T17:10:52;14.50;99.90
48912;DHT22;34722;52.108;5.044;2022-10-16T17:13:27;14.40;99.90
48912;DHT22;34722;52.108;5.044;2022-10-16T17:15:53;14.50;99.90
48912;DHT22;34722;52.108;5.044;2022-10-16T17:18:21;14.40;99.90
48912;DHT22;34722;52.108;5.044;2022-10-16T17:20:47;14.50;99.90
48912;DHT22;34722;52.108;5.044;2022-10-16T17:23:14;14.50;99.90
48912;DHT22;34722;52.108;5.044;2022-10-16T17:25:41;14.50;99.90
48912;DHT22;34722;52.108;5.044;2022-10-16T17:28:09;14.50;99.90
48912;DHT22;34722;52.108;5.044;2022-10-16T17:30:37;14.50;99.90
48912;DHT22;34722;52.108;5.044;2022-10-16T17:33:04;14.50;99.90
48912;DHT22;34722;52.108;5.044;2022-10-16T17:35:36;14.50;99.90
48912;DHT22;34722;52.108;5.044;2022-10-16T17:38:02;14.50;99.90
48912;DHT22;34722;52.108;5.044;2022-10-16T17:40:28;14.50;99.90
48912;DHT22;34722;52.108;5.044;2022-10-16T17:42:54;14.50;99.90
48912;DHT22;34722;52.108;5.044;2022-10-16T17:45:20;14.50;99.90
48912;DHT22;34722;52.108;5.044;2022-10-16T17:47:46;14.50;99.90
48912;DHT22;34722;52.108;5.044;2022-10-16T17:50:12;14.50;99.90
48912;DHT22;34722;52.108;5.044;2022-10-16T17:52:41;14.50;99.90
48912;DHT22;34722;52.108;5.044;2022-10-16T17:55:07;14.50;99.90
48912;DHT22;34722;52.108;5.044;2022-10-16T17:57:35;14.50;99.90
48912;DHT22;34722;52.108;5.044;2022-10-16T18:00:10;14.50;99.90
48912;DHT22;34722;52.108;5.044;2022-10-16T18:02:35;14.50;99.90
48912;DHT22;34722;52.108;5.044;2022-10-16T18:05:01;14.60;96.10
48912;DHT22;34722;52.108;5.044;2022-10-16T18:07:30;14.70;91.40
48912;DHT22;34722;52.108;5.044;2022-10-16T18:09:56;14.70;90.30
48912;DHT22;34722;52.108;5.044;2022-10-16T18:12:21;14.70;89.50
48912;DHT22;34722;52.108;5.044;2022-10-16T18:14:47;14.70;91.20
48912;DHT22;34722;52.108;5.044;2022-10-16T18:17:13;14.70;94.10
48912;DHT22;34722;52.108;5.044;2022-10-16T18:19:43;14.60;95.20
48912;DHT22;34722;52.108;5.044;2022-10-16T18:22:09;14.60;95.30
48912;DHT22;34722;52.108;5.044;2022-10-16T18:24:35;14.60;97.90
48912;DHT22;34722;52.108;5.044;2022-10-16T18:27:01;14.60;98.10
48912;DHT22;34722;52.108;5.044;2022-10-16T18:29:27;14.60;96.60
48912;DHT22;34722;52.108;5.044;2022-10-16T18:31:52;14.50;99.50
48912;DHT22;34722;52.108;5.044;2022-10-16T18:34:19;14.50;99.90
48912;DHT22;34722;52.108;5.044;2022-10-16T18:36:45;14.50;99.90
48912;DHT22;34722;52.108;5.044;2022-10-16T18:39:11;14.50;99.90
48912;DHT22;34722;52.108;5.044;2022-10-16T18:41:39;14.50;99.90
48912;DHT22;34722;52.108;5.044;2022-10-16T18:44:07;14.50;94.90
48912;DHT22;34722;52.108;5.044;2022-10-16T18:46:34;14.50;87.40
48912;DHT22;34722;52.108;5.044;2022-10-16T18:49:00;14.60;88.10
48912;DHT22;34722;52.108;5.044;2022-10-16T18:51:27;14.60;90.40
48912;DHT22;34722;52.108;5.044;2022-10-16T18:53:55;14.60;90.80
48912;DHT22;34722;52.108;5.044;2022-10-16T18:56:22;14.60;91.90
48912;DHT22;34722;52.108;5.044;2022-10-16T18:58:49;14.50;94.20
48912;DHT22;34722;52.108;5.044;2022-10-16T19:01:21;14.50;93.90
48912;DHT22;34722;52.108;5.044;2022-10-16T19:03:51;14.60;95.20
48912;DHT22;34722;52.108;5.044;2022-10-16T19:06:17;14.50;99.10
48912;DHT22;34722;52.108;5.044;2022-10-16T19:08:43;14.50;99.90
48912;DHT22;34722;52.108;5.044;2022-10-16T19:11:12;14.40;99.90
48912;DHT22;34722;52.108;5.044;2022-10-16T19:13:38;14.30;99.90
48912;DHT22;34722;52.108;5.044;2022-10-16T19:16:09;14.30;99.90
48912;DHT22;34722;52.108;5.044;2022-10-16T19:18:35;14.20;99.90
48912;DHT22;34722;52.108;5.044;2022-10-16T19:21:08;14.10;99.90
48912;DHT22;34722;52.108;5.044;2022-10-16T19:23:34;14.10;99.90
48912;DHT22;34722;52.108;5.044;2022-10-16T19:26:11;14.00;99.90
48912;DHT22;34722;52.108;5.044;2022-10-16T19:28:38;14.00;99.90
48912;DHT22;34722;52.108;5.044;2022-10-16T19:31:06;14.00;99.90
48912;DHT22;34722;52.108;5.044;2022-10-16T19:33:33;14.00;99.90
48912;DHT22;34722;52.108;5.044;2022-10-16T19:38:39;14.00;99.90
48912;DHT22;34722;52.108;5.044;2022-10-16T19:41:07;14.00;99.90
48912;DHT22;34722;52.108;5.044;2022-10-16T19:43:33;14.00;99.90
48912;DHT22;34722;52.108;5.044;2022-10-16T19:46:43;14.00;99.90
48912;DHT22;34722;52.108;5.044;2022-10-16T19:49:04;14.00;99.90
48912;DHT22;34722;52.108;5.044;2022-10-16T19:51:30;14.00;99.90
48912;DHT22;34722;52.108;5.044;2022-10-16T19:53:58;14.00;99.90
48912;DHT22;34722;52.108;5.044;2022-10-16T19:56:26;13.90;99.90
48912;DHT22;34722;52.108;5.044;2022-10-16T19:58:54;13.90;99.90
48912;DHT22;34722;52.108;5.044;2022-10-16T20:01:21;13.90;99.90
48912;DHT22;34722;52.108;5.044;2022-10-16T20:03:47;13.90;99.90
48912;DHT22;34722;52.108;5.044;2022-10-16T20:06:14;14.00;99.90
48912;DHT22;34722;52.108;5.044;2022-10-16T20:08:42;14.10;99.90
48912;DHT22;34722;52.108;5.044;2022-10-16T20:11:14;14.10;99.90
48912;DHT22;34722;52.108;5.044;2022-10-16T20:13:40;14.20;99.90
48912;DHT22;34722;52.108;5.044;2022-10-16T20:16:06;14.20;99.90
48912;DHT22;34722;52.108;5.044;2022-10-16T20:18:31;14.20;99.90
48912;DHT22;34722;52.108;5.044;2022-10-16T20:20:57;14.30;99.90
48912;DHT22;34722;52.108;5.044;2022-10-16T20:23:23;14.30;99.90
48912;DHT22;34722;52.108;5.044;2022-10-16T20:25:49;14.30;99.90
48912;DHT22;34722;52.108;5.044;2022-10-16T20:28:18;14.30;99.90
48912;DHT22;34722;52.108;5.044;2022-10-16T20:30:46;14.30;99.90
48912;DHT22;34722;52.108;5.044;2022-10-16T20:33:12;14.40;99.90
48912;DHT22;34722;52.108;5.044;2022-10-16T20:35:40;14.30;99.90
48912;DHT22;34722;52.108;5.044;2022-10-16T20:38:07;14.40;99.90
48912;DHT22;34722;52.108;5.044;2022-10-16T20:40:34;14.40;99.90
48912;DHT22;34722;52.108;5.044;2022-10-16T20:43:00;14.40;99.90
48912;DHT22;34722;52.108;5.044;2022-10-16T20:45:26;14.40;99.90